sensor_id;sensor_type;location;lat;lon;timestamp;P1;durP1;ratioP1;P2;durP2;ratioP2
21769;SDS011;11046;49.558;8.674;2023-09-08T00:01:02;11.38;;;6.60;;
21769;SDS011;11046;49.558;8.674;2023-09-08T00:04:03;7.80;;;6.00;;
21769;SDS011;11046;49.558;8.674;2023-09-08T00:07:04;10.05;;;6.32;;
21769;SDS011;11046;49.558;8.674;2023-09-08T00:10:04;13.00;;;6.40;;
21769;SDS011;11046;49.558;8.674;2023-09-08T00:13:05;10.18;;;6.35;;
21769;SDS011;11046;49.558;8.674;2023-09-08T00:16:06;11.50;;;6.82;;
21769;SDS011;11046;49.558;8.674;2023-09-08T00:19:08;8.73;;;6.00;;
21769;SDS011;11046;49.558;8.674;2023-09-08T00:22:09;10.93;;;6.20;;
21769;SDS011;11046;49.558;8.674;2023-09-08T00:25:10;11.57;;;6.32;;
21769;SDS011;11046;49.558;8.674;2023-09-08T00:28:10;10.45;;;6.20;;
21769;SDS011;11046;49.558;8.674;2023-09-08T00:31:11;9.93;;;6.18;;
21769;SDS011;11046;49.558;8.674;2023-09-08T00:34:12;9.85;;;6.13;;
21769;SDS011;11046;49.558;8.674;2023-09-08T00:37:12;9.13;;;5.70;;
21769;SDS011;11046;49.558;8.674;2023-09-08T00:40:13;8.68;;;6.35;;
21769;SDS011;11046;49.558;8.674;2023-09-08T00:43:14;10.10;;;6.28;;
21769;SDS011;11046;49.558;8.674;2023-09-08T00:46:14;9.10;;;6.10;;
21769;SDS011;11046;49.558;8.674;2023-09-08T00:49:16;9.82;;;6.30;;
21769;SDS011;11046;49.558;8.674;2023-09-08T00:52:17;8.85;;;6.47;;
21769;SDS011;11046;49.558;8.674;2023-09-08T00:55:17;10.27;;;6.05;;
21769;SDS011;11046;49.558;8.674;2023-09-08T00:58:18;13.68;;;6.18;;
21769;SDS011;11046;49.558;8.674;2023-09-08T01:01:19;10.35;;;6.18;;
21769;SDS011;11046;49.558;8.674;2023-09-08T01:04:20;9.00;;;6.28;;
21769;SDS011;11046;49.558;8.674;2023-09-08T01:07:21;10.75;;;6.38;;
21769;SDS011;11046;49.558;8.674;2023-09-08T01:10:22;10.75;;;6.28;;
21769;SDS011;11046;49.558;8.674;2023-09-08T01:13:23;9.23;;;6.00;;
21769;SDS011;11046;49.558;8.674;2023-09-08T01:16:23;8.63;;;6.20;;
21769;SDS011;11046;49.558;8.674;2023-09-08T01:19:24;7.60;;;5.95;;
21769;SDS011;11046;49.558;8.674;2023-09-08T01:25:55;11.30;;;6.15;;
21769;SDS011;11046;49.558;8.674;2023-09-08T01:29:02;11.38;;;6.80;;
21769;SDS011;11046;49.558;8.674;2023-09-08T01:32:03;9.88;;;6.43;;
21769;SDS011;11046;49.558;8.674;2023-09-08T01:35:04;10.23;;;6.43;;
21769;SDS011;11046;49.558;8.674;2023-09-08T01:38:06;8.98;;;6.15;;
21769;SDS011;11046;49.558;8.674;2023-09-08T01:41:07;7.93;;;6.10;;
21769;SDS011;11046;49.558;8.674;2023-09-08T01:44:07;9.50;;;5.80;;
21769;SDS011;11046;49.558;8.674;2023-09-08T01:47:10;9.95;;;6.57;;
21769;SDS011;11046;49.558;8.674;2023-09-08T01:50:10;9.05;;;6.32;;
21769;SDS011;11046;49.558;8.674;2023-09-08T01:53:11;9.80;;;6.60;;
21769;SDS011;11046;49.558;8.674;2023-09-08T01:56:12;9.65;;;6.47;;
21769;SDS011;11046;49.558;8.674;2023-09-08T01:59:12;8.60;;;6.80;;
21769;SDS011;11046;49.558;8.674;2023-09-08T02:02:13;9.80;;;6.03;;
21769;SDS011;11046;49.558;8.674;2023-09-08T02:05:14;13.10;;;6.82;;
21769;SDS011;11046;49.558;8.674;2023-09-08T02:08:16;8.88;;;6.25;;
21769;SDS011;11046;49.558;8.674;2023-09-08T02:11:16;8.50;;;5.90;;
21769;SDS011;11046;49.558;8.674;2023-09-08T02:14:17;10.18;;;5.65;;
21769;SDS011;11046;49.558;8.674;2023-09-08T02:17:20;9.40;;;6.38;;
21769;SDS011;11046;49.558;8.674;2023-09-08T02:20:20;10.38;;;5.85;;
21769;SDS011;11046;49.558;8.674;2023-09-08T02:23:21;11.57;;;5.90;;
21769;SDS011;11046;49.558;8.674;2023-09-08T02:26:21;9.60;;;6.03;;
21769;SDS011;11046;49.558;8.674;2023-09-08T02:29:22;10.88;;;6.85;;
21769;SDS011;11046;49.558;8.674;2023-09-08T02:32:23;13.25;;;6.70;;
21769;SDS011;11046;49.558;8.674;2023-09-08T02:35:24;9.57;;;6.47;;
21769;SDS011;11046;49.558;8.674;2023-09-08T02:38:27;8.15;;;6.47;;
21769;SDS011;11046;49.558;8.674;2023-09-08T02:41:28;11.45;;;6.25;;
21769;SDS011;11046;49.558;8.674;2023-09-08T02:44:29;11.13;;;6.55;;
21769;SDS011;11046;49.558;8.674;2023-09-08T02:47:30;9.95;;;6.43;;
21769;SDS011;11046;49.558;8.674;2023-09-08T02:50:34;10.38;;;5.88;;
21769;SDS011;11046;49.558;8.674;2023-09-08T02:53:35;8.98;;;6.47;;
21769;SDS011;11046;49.558;8.674;2023-09-08T02:56:36;9.93;;;6.00;;
21769;SDS011;11046;49.558;8.674;2023-09-08T02:59:37;9.63;;;6.10;;
21769;SDS011;11046;49.558;8.674;2023-09-08T03:02:38;10.90;;;5.90;;
21769;SDS011;11046;49.558;8.674;2023-09-08T03:05:38;10.25;;;6.15;;
21769;SDS011;11046;49.558;8.674;2023-09-08T03:08:39;8.52;;;6.05;;
21769;SDS011;11046;49.558;8.674;2023-09-08T03:11:40;8.95;;;6.07;;
21769;SDS011;11046;49.558;8.674;2023-09-08T03:14:41;9.27;;;6.32;;
21769;SDS011;11046;49.558;8.674;2023-09-08T03:17:41;8.23;;;5.68;;
21769;SDS011;11046;49.558;8.674;2023-09-08T03:20:42;11.18;;;6.35;;
21769;SDS011;11046;49.558;8.674;2023-09-08T03:23:45;16.63;;;6.47;;
21769;SDS011;11046;49.558;8.674;2023-09-08T03:26:45;9.68;;;6.55;;
21769;SDS011;11046;49.558;8.674;2023-09-08T03:29:46;9.13;;;5.88;;
21769;SDS011;11046;49.558;8.674;2023-09-08T03:32:46;9.73;;;6.38;;
21769;SDS011;11046;49.558;8.674;2023-09-08T03:35:47;10.27;;;6.15;;
21769;SDS011;11046;49.558;8.674;2023-09-08T03:38:49;8.65;;;6.50;;
21769;SDS011;11046;49.558;8.674;2023-09-08T03:41:49;8.45;;;6.28;;
21769;SDS011;11046;49.558;8.674;2023-09-08T03:44:50;9.25;;;5.88;;
21769;SDS011;11046;49.558;8.674;2023-09-08T03:47:51;8.77;;;6.43;;
21769;SDS011;11046;49.558;8.674;2023-09-08T03:50:52;9.52;;;5.93;;
21769;SDS011;11046;49.558;8.674;2023-09-08T03:53:52;8.88;;;5.90;;
21769;SDS011;11046;49.558;8.674;2023-09-08T03:56:53;10.80;;;6.22;;
21769;SDS011;11046;49.558;8.674;2023-09-08T03:59:54;10.23;;;6.07;;
21769;SDS011;11046;49.558;8.674;2023-09-08T04:02:55;10.27;;;6.32;;
21769;SDS011;11046;49.558;8.674;2023-09-08T04:05:56;9.35;;;6.50;;
21769;SDS011;11046;49.558;8.674;2023-09-08T04:08:57;9.50;;;6.22;;
21769;SDS011;11046;49.558;8.674;2023-09-08T04:11:58;9.23;;;6.35;;
21769;SDS011;11046;49.558;8.674;2023-09-08T04:14:58;9.43;;;6.63;;
21769;SDS011;11046;49.558;8.674;2023-09-08T04:17:59;12.40;;;5.97;;
21769;SDS011;11046;49.558;8.674;2023-09-08T04:20:59;11.45;;;6.80;;
21769;SDS011;11046;49.558;8.674;2023-09-08T04:24:00;10.50;;;6.60;;
21769;SDS011;11046;49.558;8.674;2023-09-08T04:27:01;11.27;;;6.47;;
21769;SDS011;11046;49.558;8.674;2023-09-08T04:30:02;12.68;;;6.35;;
21769;SDS011;11046;49.558;8.674;2023-09-08T04:33:04;11.52;;;6.70;;
21769;SDS011;11046;49.558;8.674;2023-09-08T04:36:05;14.05;;;6.72;;
21769;SDS011;11046;49.558;8.674;2023-09-08T04:39:06;9.50;;;6.88;;
21769;SDS011;11046;49.558;8.674;2023-09-08T04:42:10;10.38;;;6.50;;
21769;SDS011;11046;49.558;8.674;2023-09-08T04:45:12;9.75;;;6.57;;
21769;SDS011;11046;49.558;8.674;2023-09-08T04:48:15;10.07;;;6.60;;
21769;SDS011;11046;49.558;8.674;2023-09-08T04:51:16;11.75;;;6.75;;
21769;SDS011;11046;49.558;8.674;2023-09-08T04:54:17;12.32;;;6.57;;
21769;SDS011;11046;49.558;8.674;2023-09-08T04:57:18;10.75;;;6.53;;
21769;SDS011;11046;49.558;8.674;2023-09-08T05:00:20;13.18;;;7.00;;
21769;SDS011;11046;49.558;8.674;2023-09-08T05:03:22;11.85;;;7.15;;
21769;SDS011;11046;49.558;8.674;2023-09-08T05:06:23;9.55;;;6.63;;
21769;SDS011;11046;49.558;8.674;2023-09-08T05:09:23;11.15;;;6.88;;
21769;SDS011;11046;49.558;8.674;2023-09-08T05:12:25;13.07;;;7.18;;
21769;SDS011;11046;49.558;8.674;2023-09-08T05:15:25;10.63;;;7.05;;
21769;SDS011;11046;49.558;8.674;2023-09-08T05:18:27;9.85;;;6.53;;
21769;SDS011;11046;49.558;8.674;2023-09-08T05:21:30;15.38;;;6.55;;
21769;SDS011;11046;49.558;8.674;2023-09-08T05:24:31;10.48;;;6.63;;
21769;SDS011;11046;49.558;8.674;2023-09-08T05:27:32;11.45;;;6.68;;
21769;SDS011;11046;49.558;8.674;2023-09-08T05:30:32;15.50;;;6.70;;
21769;SDS011;11046;49.558;8.674;2023-09-08T05:33:34;10.18;;;6.07;;
21769;SDS011;11046;49.558;8.674;2023-09-08T05:36:34;13.05;;;6.40;;
21769;SDS011;11046;49.558;8.674;2023-09-08T05:39:40;19.48;;;6.78;;
21769;SDS011;11046;49.558;8.674;2023-09-08T05:42:41;15.10;;;6.32;;
21769;SDS011;11046;49.558;8.674;2023-09-08T05:45:44;9.38;;;6.50;;
21769;SDS011;11046;49.558;8.674;2023-09-08T05:48:45;15.52;;;6.82;;
21769;SDS011;11046;49.558;8.674;2023-09-08T05:51:48;11.07;;;7.03;;
21769;SDS011;11046;49.558;8.674;2023-09-08T05:54:49;16.58;;;7.07;;
21769;SDS011;11046;49.558;8.674;2023-09-08T05:57:50;20.75;;;8.55;;
21769;SDS011;11046;49.558;8.674;2023-09-08T06:00:51;20.88;;;7.05;;
21769;SDS011;11046;49.558;8.674;2023-09-08T06:03:52;18.05;;;7.00;;
21769;SDS011;11046;49.558;8.674;2023-09-08T06:06:54;12.88;;;7.10;;
21769;SDS011;11046;49.558;8.674;2023-09-08T06:09:55;11.90;;;7.13;;
21769;SDS011;11046;49.558;8.674;2023-09-08T06:12:56;12.93;;;7.32;;
21769;SDS011;11046;49.558;8.674;2023-09-08T06:15:57;9.82;;;6.93;;
21769;SDS011;11046;49.558;8.674;2023-09-08T06:18:58;14.10;;;6.93;;
21769;SDS011;11046;49.558;8.674;2023-09-08T06:22:00;13.35;;;7.55;;
21769;SDS011;11046;49.558;8.674;2023-09-08T06:25:01;13.38;;;7.35;;
21769;SDS011;11046;49.558;8.674;2023-09-08T06:28:02;12.88;;;7.03;;
21769;SDS011;11046;49.558;8.674;2023-09-08T06:31:04;13.05;;;7.10;;
21769;SDS011;11046;49.558;8.674;2023-09-08T06:34:05;11.23;;;7.30;;
21769;SDS011;11046;49.558;8.674;2023-09-08T06:37:06;12.50;;;6.97;;
21769;SDS011;11046;49.558;8.674;2023-09-08T06:40:08;16.50;;;7.18;;
21769;SDS011;11046;49.558;8.674;2023-09-08T06:43:08;14.02;;;6.85;;
21769;SDS011;11046;49.558;8.674;2023-09-08T06:46:17;20.70;;;6.63;;
21769;SDS011;11046;49.558;8.674;2023-09-08T06:49:17;10.20;;;6.82;;
21769;SDS011;11046;49.558;8.674;2023-09-08T06:52:18;12.00;;;6.43;;
21769;SDS011;11046;49.558;8.674;2023-09-08T06:55:19;12.10;;;6.47;;
21769;SDS011;11046;49.558;8.674;2023-09-08T06:58:20;16.35;;;5.75;;
21769;SDS011;11046;49.558;8.674;2023-09-08T07:01:22;11.85;;;6.07;;
21769;SDS011;11046;49.558;8.674;2023-09-08T07:04:22;12.57;;;6.30;;
21769;SDS011;11046;49.558;8.674;2023-09-08T07:07:23;13.77;;;5.57;;
21769;SDS011;11046;49.558;8.674;2023-09-08T07:10:24;12.98;;;5.40;;
21769;SDS011;11046;49.558;8.674;2023-09-08T07:13:25;10.43;;;5.40;;
21769;SDS011;11046;49.558;8.674;2023-09-08T07:16:26;15.70;;;5.57;;
21769;SDS011;11046;49.558;8.674;2023-09-08T07:19:27;12.55;;;5.40;;
21769;SDS011;11046;49.558;8.674;2023-09-08T07:22:28;7.13;;;5.05;;
21769;SDS011;11046;49.558;8.674;2023-09-08T07:25:29;7.10;;;5.18;;
21769;SDS011;11046;49.558;8.674;2023-09-08T07:28:30;8.40;;;5.07;;
21769;SDS011;11046;49.558;8.674;2023-09-08T07:31:34;8.77;;;5.15;;
21769;SDS011;11046;49.558;8.674;2023-09-08T07:34:34;11.98;;;5.70;;
21769;SDS011;11046;49.558;8.674;2023-09-08T07:37:36;7.57;;;5.00;;
21769;SDS011;11046;49.558;8.674;2023-09-08T07:40:37;7.22;;;4.88;;
21769;SDS011;11046;49.558;8.674;2023-09-08T07:43:39;11.05;;;5.35;;
21769;SDS011;11046;49.558;8.674;2023-09-08T07:46:43;7.60;;;5.35;;
21769;SDS011;11046;49.558;8.674;2023-09-08T07:49:46;7.13;;;5.15;;
21769;SDS011;11046;49.558;8.674;2023-09-08T07:52:48;9.15;;;5.32;;
21769;SDS011;11046;49.558;8.674;2023-09-08T07:55:50;8.48;;;4.88;;
21769;SDS011;11046;49.558;8.674;2023-09-08T07:58:50;8.55;;;5.05;;
21769;SDS011;11046;49.558;8.674;2023-09-08T08:01:51;8.40;;;5.05;;
21769;SDS011;11046;49.558;8.674;2023-09-08T08:04:52;7.38;;;4.50;;
21769;SDS011;11046;49.558;8.674;2023-09-08T08:07:52;6.30;;;4.53;;
21769;SDS011;11046;49.558;8.674;2023-09-08T08:10:53;6.47;;;4.63;;
21769;SDS011;11046;49.558;8.674;2023-09-08T08:13:54;8.00;;;5.45;;
21769;SDS011;11046;49.558;8.674;2023-09-08T08:16:56;11.15;;;4.78;;
21769;SDS011;11046;49.558;8.674;2023-09-08T08:19:57;13.77;;;4.75;;
21769;SDS011;11046;49.558;8.674;2023-09-08T08:23:07;7.57;;;4.78;;
21769;SDS011;11046;49.558;8.674;2023-09-08T08:26:10;10.88;;;5.38;;
21769;SDS011;11046;49.558;8.674;2023-09-08T08:29:10;9.15;;;5.13;;
21769;SDS011;11046;49.558;8.674;2023-09-08T08:32:11;8.05;;;5.95;;
21769;SDS011;11046;49.558;8.674;2023-09-08T08:35:12;12.10;;;5.60;;
21769;SDS011;11046;49.558;8.674;2023-09-08T08:38:12;8.88;;;5.65;;
21769;SDS011;11046;49.558;8.674;2023-09-08T08:41:13;8.93;;;6.20;;
21769;SDS011;11046;49.558;8.674;2023-09-08T08:44:14;9.98;;;6.40;;
21769;SDS011;11046;49.558;8.674;2023-09-08T08:47:17;14.15;;;6.07;;
21769;SDS011;11046;49.558;8.674;2023-09-08T08:50:19;9.25;;;6.40;;
21769;SDS011;11046;49.558;8.674;2023-09-08T08:53:20;11.05;;;6.63;;
21769;SDS011;11046;49.558;8.674;2023-09-08T08:56:21;9.80;;;7.38;;
21769;SDS011;11046;49.558;8.674;2023-09-08T08:59:22;10.50;;;6.97;;
21769;SDS011;11046;49.558;8.674;2023-09-08T09:02:24;8.48;;;6.70;;
21769;SDS011;11046;49.558;8.674;2023-09-08T09:05:28;15.95;;;8.27;;
21769;SDS011;11046;49.558;8.674;2023-09-08T09:08:28;8.60;;;6.53;;
21769;SDS011;11046;49.558;8.674;2023-09-08T09:11:30;13.07;;;7.10;;
21769;SDS011;11046;49.558;8.674;2023-09-08T09:14:31;12.38;;;7.13;;
21769;SDS011;11046;49.558;8.674;2023-09-08T09:17:33;9.30;;;6.80;;
21769;SDS011;11046;49.558;8.674;2023-09-08T09:20:35;8.68;;;6.30;;
21769;SDS011;11046;49.558;8.674;2023-09-08T09:23:36;10.88;;;6.40;;
21769;SDS011;11046;49.558;8.674;2023-09-08T09:26:36;15.68;;;6.43;;
21769;SDS011;11046;49.558;8.674;2023-09-08T09:29:46;10.02;;;5.82;;
21769;SDS011;11046;49.558;8.674;2023-09-08T09:32:57;10.55;;;5.97;;
21769;SDS011;11046;49.558;8.674;2023-09-08T09:36:04;14.10;;;6.10;;
21769;SDS011;11046;49.558;8.674;2023-09-08T09:39:06;10.73;;;5.43;;
21769;SDS011;11046;49.558;8.674;2023-09-08T09:42:06;7.10;;;5.30;;
21769;SDS011;11046;49.558;8.674;2023-09-08T09:45:07;9.70;;;5.47;;
21769;SDS011;11046;49.558;8.674;2023-09-08T09:48:09;9.85;;;5.65;;
21769;SDS011;11046;49.558;8.674;2023-09-08T09:51:16;9.05;;;5.43;;
21769;SDS011;11046;49.558;8.674;2023-09-08T09:54:19;9.23;;;5.47;;
21769;SDS011;11046;49.558;8.674;2023-09-08T09:57:21;7.80;;;5.60;;
21769;SDS011;11046;49.558;8.674;2023-09-08T10:00:22;10.25;;;6.03;;
21769;SDS011;11046;49.558;8.674;2023-09-08T10:03:28;8.70;;;5.63;;
21769;SDS011;11046;49.558;8.674;2023-09-08T10:06:34;7.63;;;5.40;;
21769;SDS011;11046;49.558;8.674;2023-09-08T10:09:36;7.80;;;4.78;;
21769;SDS011;11046;49.558;8.674;2023-09-08T10:12:38;10.88;;;5.60;;
21769;SDS011;11046;49.558;8.674;2023-09-08T10:15:40;8.30;;;5.78;;
21769;SDS011;11046;49.558;8.674;2023-09-08T10:18:44;10.13;;;5.43;;
21769;SDS011;11046;49.558;8.674;2023-09-08T10:21:46;12.10;;;5.47;;
21769;SDS011;11046;49.558;8.674;2023-09-08T10:24:47;7.78;;;5.65;;
21769;SDS011;11046;49.558;8.674;2023-09-08T10:27:50;9.07;;;5.97;;
21769;SDS011;11046;49.558;8.674;2023-09-08T10:30:51;6.00;;;5.32;;
21769;SDS011;11046;49.558;8.674;2023-09-08T10:34:09;6.72;;;5.57;;
21769;SDS011;11046;49.558;8.674;2023-09-08T10:37:18;11.27;;;5.55;;
21769;SDS011;11046;49.558;8.674;2023-09-08T10:40:25;8.52;;;5.90;;
21769;SDS011;11046;49.558;8.674;2023-09-08T10:43:27;10.23;;;5.78;;
21769;SDS011;11046;49.558;8.674;2023-09-08T10:46:28;9.45;;;5.38;;
21769;SDS011;11046;49.558;8.674;2023-09-08T10:49:34;7.28;;;5.40;;
21769;SDS011;11046;49.558;8.674;2023-09-08T10:52:36;7.03;;;5.47;;
21769;SDS011;11046;49.558;8.674;2023-09-08T10:55:41;11.27;;;5.50;;
21769;SDS011;11046;49.558;8.674;2023-09-08T10:58:43;5.93;;;5.25;;
21769;SDS011;11046;49.558;8.674;2023-09-08T11:01:53;8.55;;;5.05;;
21769;SDS011;11046;49.558;8.674;2023-09-08T11:04:54;5.97;;;5.38;;
21769;SDS011;11046;49.558;8.674;2023-09-08T11:07:55;10.07;;;5.35;;
21769;SDS011;11046;49.558;8.674;2023-09-08T11:10:56;12.43;;;6.15;;
21769;SDS011;11046;49.558;8.674;2023-09-08T11:13:57;6.45;;;5.18;;
21769;SDS011;11046;49.558;8.674;2023-09-08T11:17:00;8.75;;;5.50;;
21769;SDS011;11046;49.558;8.674;2023-09-08T11:20:03;8.70;;;5.10;;
21769;SDS011;11046;49.558;8.674;2023-09-08T11:23:08;9.13;;;5.28;;
21769;SDS011;11046;49.558;8.674;2023-09-08T11:26:11;10.07;;;4.85;;
21769;SDS011;11046;49.558;8.674;2023-09-08T11:29:13;6.65;;;5.10;;
21769;SDS011;11046;49.558;8.674;2023-09-08T11:32:14;8.98;;;5.07;;
21769;SDS011;11046;49.558;8.674;2023-09-08T11:35:16;6.45;;;5.07;;
21769;SDS011;11046;49.558;8.674;2023-09-08T11:38:24;7.40;;;4.97;;
21769;SDS011;11046;49.558;8.674;2023-09-08T11:41:28;10.70;;;5.57;;
21769;SDS011;11046;49.558;8.674;2023-09-08T11:44:28;7.15;;;4.78;;
21769;SDS011;11046;49.558;8.674;2023-09-08T11:47:29;10.68;;;4.95;;
21769;SDS011;11046;49.558;8.674;2023-09-08T11:50:31;5.93;;;5.15;;
21769;SDS011;11046;49.558;8.674;2023-09-08T11:53:32;7.00;;;5.30;;
21769;SDS011;11046;49.558;8.674;2023-09-08T11:56:33;5.43;;;4.93;;
21769;SDS011;11046;49.558;8.674;2023-09-08T11:59:35;9.68;;;4.93;;
21769;SDS011;11046;49.558;8.674;2023-09-08T12:02:37;9.38;;;5.07;;
21769;SDS011;11046;49.558;8.674;2023-09-08T12:05:38;8.68;;;4.93;;
21769;SDS011;11046;49.558;8.674;2023-09-08T12:08:41;8.35;;;4.90;;
21769;SDS011;11046;49.558;8.674;2023-09-08T12:11:41;5.97;;;5.35;;
21769;SDS011;11046;49.558;8.674;2023-09-08T12:14:44;5.88;;;5.07;;
21769;SDS011;11046;49.558;8.674;2023-09-08T12:17:47;7.90;;;4.70;;
21769;SDS011;11046;49.558;8.674;2023-09-08T12:21:02;9.13;;;5.40;;
21769;SDS011;11046;49.558;8.674;2023-09-08T12:24:06;5.32;;;4.65;;
21769;SDS011;11046;49.558;8.674;2023-09-08T12:27:08;9.07;;;4.80;;
21769;SDS011;11046;49.558;8.674;2023-09-08T12:30:16;8.13;;;4.90;;
21769;SDS011;11046;49.558;8.674;2023-09-08T12:33:19;5.78;;;4.57;;
21769;SDS011;11046;49.558;8.674;2023-09-08T12:36:20;5.30;;;4.72;;
21769;SDS011;11046;49.558;8.674;2023-09-08T12:39:22;8.18;;;5.10;;
21769;SDS011;11046;49.558;8.674;2023-09-08T12:42:24;7.68;;;4.50;;
21769;SDS011;11046;49.558;8.674;2023-09-08T12:45:30;7.40;;;4.70;;
21769;SDS011;11046;49.558;8.674;2023-09-08T12:48:33;5.82;;;4.60;;
21769;SDS011;11046;49.558;8.674;2023-09-08T12:51:34;6.47;;;5.00;;
21769;SDS011;11046;49.558;8.674;2023-09-08T12:54:36;5.90;;;4.57;;
21769;SDS011;11046;49.558;8.674;2023-09-08T12:57:38;12.23;;;5.47;;
21769;SDS011;11046;49.558;8.674;2023-09-08T13:00:38;5.95;;;4.85;;
21769;SDS011;11046;49.558;8.674;2023-09-08T13:03:40;10.60;;;4.93;;
21769;SDS011;11046;49.558;8.674;2023-09-08T13:06:41;6.88;;;5.13;;
21769;SDS011;11046;49.558;8.674;2023-09-08T13:09:42;5.95;;;4.65;;
21769;SDS011;11046;49.558;8.674;2023-09-08T13:12:45;7.20;;;4.40;;
21769;SDS011;11046;49.558;8.674;2023-09-08T13:15:46;7.28;;;4.63;;
21769;SDS011;11046;49.558;8.674;2023-09-08T13:18:51;6.80;;;4.78;;
21769;SDS011;11046;49.558;8.674;2023-09-08T13:21:54;6.28;;;4.65;;
21769;SDS011;11046;49.558;8.674;2023-09-08T13:24:57;5.82;;;4.72;;
21769;SDS011;11046;49.558;8.674;2023-09-08T13:27:58;6.80;;;4.60;;
21769;SDS011;11046;49.558;8.674;2023-09-08T13:30:59;7.07;;;4.88;;
21769;SDS011;11046;49.558;8.674;2023-09-08T13:34:01;10.02;;;4.68;;
21769;SDS011;11046;49.558;8.674;2023-09-08T13:37:01;7.60;;;4.55;;
21769;SDS011;11046;49.558;8.674;2023-09-08T13:40:03;11.95;;;4.30;;
21769;SDS011;11046;49.558;8.674;2023-09-08T13:43:04;5.82;;;4.70;;
21769;SDS011;11046;49.558;8.674;2023-09-08T13:46:05;5.50;;;4.38;;
21769;SDS011;11046;49.558;8.674;2023-09-08T13:49:06;6.53;;;4.30;;
21769;SDS011;11046;49.558;8.674;2023-09-08T13:52:07;8.65;;;4.65;;
21769;SDS011;11046;49.558;8.674;2023-09-08T13:55:07;6.05;;;4.68;;
21769;SDS011;11046;49.558;8.674;2023-09-08T13:58:09;5.70;;;4.32;;
21769;SDS011;11046;49.558;8.674;2023-09-08T14:01:11;5.47;;;4.80;;
21769;SDS011;11046;49.558;8.674;2023-09-08T14:04:13;11.38;;;4.10;;
21769;SDS011;11046;49.558;8.674;2023-09-08T14:07:13;7.63;;;4.22;;
21769;SDS011;11046;49.558;8.674;2023-09-08T14:10:14;6.47;;;4.57;;
21769;SDS011;11046;49.558;8.674;2023-09-08T14:13:16;5.43;;;4.25;;
21769;SDS011;11046;49.558;8.674;2023-09-08T14:16:17;4.90;;;4.40;;
21769;SDS011;11046;49.558;8.674;2023-09-08T14:19:19;6.15;;;4.20;;
21769;SDS011;11046;49.558;8.674;2023-09-08T14:22:19;5.85;;;4.45;;
21769;SDS011;11046;49.558;8.674;2023-09-08T14:25:20;8.93;;;4.72;;
21769;SDS011;11046;49.558;8.674;2023-09-08T14:28:21;8.77;;;4.30;;
21769;SDS011;11046;49.558;8.674;2023-09-08T14:31:22;8.43;;;4.78;;
21769;SDS011;11046;49.558;8.674;2023-09-08T14:34:22;8.55;;;4.97;;
21769;SDS011;11046;49.558;8.674;2023-09-08T14:37:23;5.25;;;4.75;;
21769;SDS011;11046;49.558;8.674;2023-09-08T14:40:24;8.35;;;5.03;;
21769;SDS011;11046;49.558;8.674;2023-09-08T14:43:25;5.90;;;4.57;;
21769;SDS011;11046;49.558;8.674;2023-09-08T14:46:26;11.77;;;5.18;;
21769;SDS011;11046;49.558;8.674;2023-09-08T14:49:28;5.38;;;4.88;;
21769;SDS011;11046;49.558;8.674;2023-09-08T14:52:29;7.75;;;5.00;;
21769;SDS011;11046;49.558;8.674;2023-09-08T14:55:30;9.48;;;4.78;;
21769;SDS011;11046;49.558;8.674;2023-09-08T14:58:30;6.28;;;4.88;;
21769;SDS011;11046;49.558;8.674;2023-09-08T15:01:34;7.85;;;4.75;;
21769;SDS011;11046;49.558;8.674;2023-09-08T15:04:36;7.03;;;5.03;;
21769;SDS011;11046;49.558;8.674;2023-09-08T15:07:37;7.43;;;5.00;;
21769;SDS011;11046;49.558;8.674;2023-09-08T15:10:37;11.25;;;5.10;;
21769;SDS011;11046;49.558;8.674;2023-09-08T15:13:38;6.50;;;4.90;;
21769;SDS011;11046;49.558;8.674;2023-09-08T15:16:40;6.93;;;5.22;;
21769;SDS011;11046;49.558;8.674;2023-09-08T15:19:41;8.52;;;5.45;;
21769;SDS011;11046;49.558;8.674;2023-09-08T15:22:41;8.68;;;4.93;;
21769;SDS011;11046;49.558;8.674;2023-09-08T15:26:00;8.52;;;5.35;;
21769;SDS011;11046;49.558;8.674;2023-09-08T15:29:01;9.50;;;4.97;;
21769;SDS011;11046;49.558;8.674;2023-09-08T15:32:03;7.53;;;5.35;;
21769;SDS011;11046;49.558;8.674;2023-09-08T15:35:06;6.53;;;5.50;;
21769;SDS011;11046;49.558;8.674;2023-09-08T15:38:08;11.32;;;5.60;;
21769;SDS011;11046;49.558;8.674;2023-09-08T15:44:17;8.80;;;5.47;;
21769;SDS011;11046;49.558;8.674;2023-09-08T15:47:18;7.75;;;5.28;;
21769;SDS011;11046;49.558;8.674;2023-09-08T15:50:21;7.70;;;5.20;;
21769;SDS011;11046;49.558;8.674;2023-09-08T15:53:22;8.07;;;5.20;;
21769;SDS011;11046;49.558;8.674;2023-09-08T15:56:24;8.38;;;5.50;;
21769;SDS011;11046;49.558;8.674;2023-09-08T15:59:24;5.85;;;5.25;;
21769;SDS011;11046;49.558;8.674;2023-09-08T16:02:26;7.90;;;5.20;;
21769;SDS011;11046;49.558;8.674;2023-09-08T16:05:26;6.30;;;5.38;;
21769;SDS011;11046;49.558;8.674;2023-09-08T16:08:27;10.50;;;5.38;;
21769;SDS011;11046;49.558;8.674;2023-09-08T16:11:28;5.90;;;5.05;;
21769;SDS011;11046;49.558;8.674;2023-09-08T16:14:29;12.43;;;4.95;;
21769;SDS011;11046;49.558;8.674;2023-09-08T16:17:30;6.45;;;5.15;;
21769;SDS011;11046;49.558;8.674;2023-09-08T16:20:32;9.57;;;5.65;;
21769;SDS011;11046;49.558;8.674;2023-09-08T16:23:32;10.88;;;6.07;;
21769;SDS011;11046;49.558;8.674;2023-09-08T16:26:33;7.53;;;5.95;;
21769;SDS011;11046;49.558;8.674;2023-09-08T16:29:34;10.73;;;6.28;;
21769;SDS011;11046;49.558;8.674;2023-09-08T16:32:34;8.32;;;5.38;;
21769;SDS011;11046;49.558;8.674;2023-09-08T16:35:35;12.70;;;5.80;;
21769;SDS011;11046;49.558;8.674;2023-09-08T16:38:36;8.05;;;6.05;;
21769;SDS011;11046;49.558;8.674;2023-09-08T16:41:36;8.65;;;5.97;;
21769;SDS011;11046;49.558;8.674;2023-09-08T16:44:37;10.68;;;6.07;;
21769;SDS011;11046;49.558;8.674;2023-09-08T16:47:39;11.23;;;6.10;;
21769;SDS011;11046;49.558;8.674;2023-09-08T16:50:40;8.68;;;6.22;;
21769;SDS011;11046;49.558;8.674;2023-09-08T16:53:40;7.03;;;5.60;;
21769;SDS011;11046;49.558;8.674;2023-09-08T16:56:41;6.78;;;5.30;;
21769;SDS011;11046;49.558;8.674;2023-09-08T16:59:42;7.88;;;5.80;;
21769;SDS011;11046;49.558;8.674;2023-09-08T17:02:42;7.00;;;5.68;;
21769;SDS011;11046;49.558;8.674;2023-09-08T17:05:43;7.75;;;5.68;;
21769;SDS011;11046;49.558;8.674;2023-09-08T17:08:44;10.38;;;5.43;;
21769;SDS011;11046;49.558;8.674;2023-09-08T17:11:44;11.25;;;5.93;;
21769;SDS011;11046;49.558;8.674;2023-09-08T17:14:45;6.40;;;5.57;;
21769;SDS011;11046;49.558;8.674;2023-09-08T17:17:46;9.00;;;6.43;;
21769;SDS011;11046;49.558;8.674;2023-09-08T17:20:46;11.23;;;6.78;;
21769;SDS011;11046;49.558;8.674;2023-09-08T17:23:47;8.98;;;5.97;;
21769;SDS011;11046;49.558;8.674;2023-09-08T17:26:48;11.57;;;7.20;;
21769;SDS011;11046;49.558;8.674;2023-09-08T17:29:48;11.40;;;7.95;;
21769;SDS011;11046;49.558;8.674;2023-09-08T17:32:49;14.85;;;8.30;;
21769;SDS011;11046;49.558;8.674;2023-09-08T17:35:50;12.73;;;7.18;;
21769;SDS011;11046;49.558;8.674;2023-09-08T17:38:51;12.05;;;7.32;;
21769;SDS011;11046;49.558;8.674;2023-09-08T17:41:52;7.50;;;6.25;;
21769;SDS011;11046;49.558;8.674;2023-09-08T17:44:52;10.07;;;6.18;;
21769;SDS011;11046;49.558;8.674;2023-09-08T17:47:53;12.48;;;6.90;;
21769;SDS011;11046;49.558;8.674;2023-09-08T17:50:54;21.80;;;11.45;;
21769;SDS011;11046;49.558;8.674;2023-09-08T17:53:55;20.08;;;11.38;;
21769;SDS011;11046;49.558;8.674;2023-09-08T17:56:57;19.30;;;11.20;;
21769;SDS011;11046;49.558;8.674;2023-09-08T18:00:02;18.23;;;9.88;;
21769;SDS011;11046;49.558;8.674;2023-09-08T18:03:05;20.10;;;10.40;;
21769;SDS011;11046;49.558;8.674;2023-09-08T18:06:05;22.60;;;8.90;;
21769;SDS011;11046;49.558;8.674;2023-09-08T18:09:09;16.13;;;8.63;;
21769;SDS011;11046;49.558;8.674;2023-09-08T18:12:10;16.40;;;8.15;;
21769;SDS011;11046;49.558;8.674;2023-09-08T18:15:11;18.20;;;8.98;;